createdAt,value
2019-01-13T00:00:14.874Z,5.71
2019-01-13T00:01:14.804Z,5.68
2019-01-13T00:02:14.738Z,5.71
2019-01-13T00:03:14.681Z,5.68
2019-01-13T00:04:14.643Z,5.73
2019-01-13T00:05:14.554Z,5.71
2019-01-13T00:06:14.492Z,5.73
2019-01-13T00:07:14.429Z,5.74
2019-01-13T00:08:14.367Z,5.70
2019-01-13T00:09:14.354Z,5.73
2019-01-13T00:10:14.243Z,5.71
2019-01-13T00:11:14.190Z,5.68
2019-01-13T00:12:14.118Z,5.68
2019-01-13T00:13:14.057Z,5.73
2019-01-13T00:14:13.994Z,5.71
2019-01-13T00:15:13.931Z,5.68
2019-01-13T00:16:13.871Z,5.71
2019-01-13T00:17:13.816Z,5.73
2019-01-13T00:18:13.745Z,5.77
2019-01-13T00:19:13.698Z,5.71
2019-01-13T00:20:13.638Z,5.70
2019-01-13T00:21:13.559Z,5.74
2019-01-13T00:22:13.571Z,5.74
2019-01-13T00:23:13.434Z,5.70
2019-01-13T00:24:13.383Z,5.71
2019-01-13T00:25:13.310Z,5.73
2019-01-13T00:26:13.247Z,5.70
2019-01-13T00:27:13.186Z,5.68
2019-01-13T00:28:13.126Z,5.70
2019-01-13T00:29:13.062Z,5.74
2019-01-13T00:30:19.191Z,5.77
2019-01-13T00:31:12.941Z,5.71
2019-01-13T00:32:12.874Z,5.73
2019-01-13T00:33:12.811Z,5.68
2019-01-13T00:34:12.749Z,5.68
2019-01-13T00:35:12.694Z,5.73
2019-01-13T00:36:12.624Z,5.74
2019-01-13T00:37:12.563Z,5.68
2019-01-13T00:38:12.500Z,5.70
2019-01-13T00:39:12.439Z,5.70
2019-01-13T00:40:12.383Z,5.75
2019-01-13T00:41:12.322Z,5.71
2019-01-13T00:42:12.258Z,5.75
2019-01-13T00:43:12.189Z,5.71
2019-01-13T00:44:12.135Z,5.68
2019-01-13T00:45:12.070Z,5.77
2019-01-13T00:46:12.006Z,5.73
2019-01-13T00:47:11.946Z,5.71
2019-01-13T00:48:11.888Z,5.74
2019-01-13T00:49:11.817Z,5.73
2019-01-13T00:50:11.755Z,5.68
2019-01-13T00:51:11.701Z,5.70
2019-01-13T00:52:11.631Z,5.74
2019-01-13T00:53:11.568Z,5.74
2019-01-13T00:54:11.506Z,5.71
2019-01-13T00:55:11.443Z,5.73
2019-01-13T00:56:11.387Z,5.71
2019-01-13T00:57:11.325Z,5.73
2019-01-13T00:58:11.258Z,5.71
2019-01-13T00:59:11.194Z,5.70
2019-01-13T01:00:11.134Z,5.70
2019-01-13T01:01:11.075Z,5.66
2019-01-13T01:02:11.010Z,5.74
2019-01-13T01:03:10.946Z,5.74
2019-01-13T01:04:10.883Z,5.75
2019-01-13T01:05:10.931Z,5.75
2019-01-13T01:06:10.764Z,5.71
2019-01-13T01:07:10.696Z,5.75
2019-01-13T01:08:10.643Z,5.74
2019-01-13T01:09:10.578Z,5.75
2019-01-13T01:10:10.511Z,5.68
2019-01-13T01:11:10.448Z,5.70
2019-01-13T01:12:10.404Z,5.71
2019-01-13T01:13:10.331Z,5.74
2019-01-13T01:14:10.262Z,5.71
2019-01-13T01:15:10.203Z,5.77
2019-01-13T01:16:10.142Z,5.70
2019-01-13T01:17:10.082Z,5.73
2019-01-13T01:18:10.012Z,5.75
2019-01-13T01:19:09.950Z,5.74
2019-01-13T01:20:09.888Z,5.78
2019-01-13T01:21:09.833Z,5.78
2019-01-13T01:22:09.769Z,5.81
2019-01-13T01:23:09.704Z,5.74
2019-01-13T01:24:09.645Z,5.71
2019-01-13T01:25:09.578Z,5.75
2019-01-13T01:26:09.515Z,5.75
2019-01-13T01:27:09.454Z,5.74
2019-01-13T01:28:09.391Z,5.81
2019-01-13T01:29:09.329Z,5.73
2019-01-13T01:30:09.293Z,5.77
2019-01-13T01:31:09.205Z,5.74
2019-01-13T01:32:09.142Z,5.71
2019-01-13T01:33:09.087Z,5.73
2019-01-13T01:34:09.022Z,5.74
2019-01-13T01:35:09.010Z,5.71
2019-01-13T01:36:08.899Z,5.77
2019-01-13T01:37:08.841Z,5.74
2019-01-13T01:38:08.775Z,5.81
2019-01-13T01:39:08.710Z,5.78
2019-01-13T01:40:08.647Z,5.71
2019-01-13T01:41:08.584Z,5.77
2019-01-13T01:42:08.521Z,5.70
2019-01-13T01:43:08.460Z,5.74
2019-01-13T01:44:08.396Z,5.74
2019-01-13T01:45:08.334Z,5.81
2019-01-13T01:46:08.271Z,5.75
2019-01-13T01:47:08.209Z,5.74
2019-01-13T01:48:08.148Z,5.77
2019-01-13T01:49:08.086Z,5.73
2019-01-13T01:50:08.024Z,5.71
2019-01-13T01:51:07.964Z,5.71
2019-01-13T01:52:07.903Z,5.74
2019-01-13T01:53:07.837Z,5.78
2019-01-13T01:54:07.774Z,5.67
2019-01-13T01:55:07.712Z,5.73
2019-01-13T01:56:07.652Z,5.73
2019-01-13T01:57:07.588Z,5.71
2019-01-13T01:58:07.526Z,5.73
2019-01-13T01:59:07.466Z,5.75
2019-01-13T02:00:07.401Z,5.78
2019-01-13T02:01:07.339Z,5.73
2019-01-13T02:02:07.276Z,5.71
2019-01-13T02:03:07.233Z,5.78
2019-01-13T02:04:07.181Z,5.74
2019-01-13T02:05:07.091Z,5.77
2019-01-13T02:06:07.028Z,5.67
2019-01-13T02:07:07.138Z,5.78
2019-01-13T02:08:06.909Z,5.71
2019-01-13T02:09:06.843Z,5.78
2019-01-13T02:10:06.779Z,5.77
2019-01-13T02:11:06.719Z,5.74
2019-01-13T02:12:06.657Z,5.71
2019-01-13T02:13:06.594Z,5.71
2019-01-13T02:14:06.530Z,5.77
2019-01-13T02:15:06.468Z,5.81
2019-01-13T02:16:06.406Z,5.75
2019-01-13T02:17:06.402Z,5.74
2019-01-13T02:18:06.281Z,5.73
2019-01-13T02:19:06.219Z,5.75
2019-01-13T02:20:06.157Z,5.78
2019-01-13T02:21:06.095Z,5.78
2019-01-13T02:22:06.033Z,5.81
2019-01-13T02:23:05.975Z,5.75
2019-01-13T02:24:05.908Z,5.68
2019-01-13T02:25:05.846Z,5.77
2019-01-13T02:26:05.784Z,5.73
2019-01-13T02:27:05.721Z,5.77
2019-01-13T02:28:05.660Z,5.73
2019-01-13T02:29:05.599Z,5.74
2019-01-13T02:30:05.537Z,5.85
2019-01-13T02:31:05.475Z,5.68
2019-01-13T02:32:05.412Z,5.78
2019-01-13T02:33:05.353Z,5.82
2019-01-13T02:34:05.286Z,5.71
2019-01-13T02:35:05.229Z,5.68
2019-01-13T02:36:05.162Z,5.78
2019-01-13T02:37:05.100Z,5.75
2019-01-13T02:38:05.090Z,5.77
2019-01-13T02:39:04.977Z,5.78
2019-01-13T02:40:04.914Z,5.81
2019-01-13T02:41:04.854Z,5.82
2019-01-13T02:42:04.794Z,5.75
2019-01-13T02:43:04.727Z,5.74
2019-01-13T02:44:04.665Z,5.83
2019-01-13T02:45:04.603Z,5.81
2019-01-13T02:46:04.541Z,5.70
2019-01-13T02:47:04.479Z,5.82
2019-01-13T02:48:04.472Z,5.77
2019-01-13T02:49:04.355Z,5.81
2019-01-13T02:50:04.296Z,5.74
2019-01-13T02:51:04.229Z,5.71
2019-01-13T02:52:04.172Z,5.81
2019-01-13T02:53:04.106Z,5.70
2019-01-13T02:54:04.043Z,5.77
2019-01-13T02:55:03.980Z,5.74
2019-01-13T02:56:03.919Z,5.78
2019-01-13T02:57:03.930Z,5.77
2019-01-13T02:58:03.794Z,5.77
2019-01-13T02:59:03.733Z,5.81
2019-01-13T03:00:03.680Z,5.75
2019-01-13T03:01:03.612Z,5.83
2019-01-13T03:02:03.545Z,5.78
2019-01-13T03:03:03.482Z,5.74
2019-01-13T03:04:03.422Z,5.75
2019-01-13T03:05:03.358Z,5.75
2019-01-13T03:06:03.295Z,5.77
2019-01-13T03:07:03.234Z,5.78
2019-01-13T03:08:03.172Z,5.77
2019-01-13T03:09:03.120Z,5.78
2019-01-13T03:10:03.051Z,5.83
2019-01-13T03:11:02.989Z,5.82
2019-01-13T03:12:02.927Z,5.85
2019-01-13T03:13:02.861Z,5.81
2019-01-13T03:14:02.799Z,5.81
2019-01-13T03:15:02.739Z,5.78
2019-01-13T03:16:02.674Z,5.81
2019-01-13T03:17:02.614Z,5.78
2019-01-13T03:18:02.551Z,5.78
2019-01-13T03:19:02.489Z,5.81
2019-01-13T03:20:02.428Z,5.83
2019-01-13T03:21:02.363Z,5.78
2019-01-13T03:22:02.300Z,5.68
2019-01-13T03:23:02.240Z,5.78
2019-01-13T03:24:02.178Z,5.82
2019-01-13T03:25:02.116Z,5.78
2019-01-13T03:26:02.053Z,5.81
2019-01-13T03:27:01.990Z,5.78
2019-01-13T03:28:01.929Z,5.83
2019-01-13T03:29:01.867Z,5.83
2019-01-13T03:30:01.807Z,5.81
2019-01-13T03:31:11.150Z,5.82
2019-01-13T03:32:01.681Z,5.77
2019-01-13T03:33:01.620Z,5.81
2019-01-13T03:34:01.553Z,5.78
2019-01-13T03:35:01.499Z,5.83
2019-01-13T03:36:01.431Z,5.73
2019-01-13T03:37:01.369Z,5.77
2019-01-13T03:38:01.312Z,5.78
2019-01-13T03:39:01.243Z,5.78
2019-01-13T03:40:01.182Z,5.74
2019-01-13T03:41:01.120Z,5.78
2019-01-13T03:42:01.058Z,5.77
2019-01-13T03:43:00.995Z,5.81
2019-01-13T03:44:00.934Z,5.82
2019-01-13T03:45:00.871Z,5.82
2019-01-13T03:46:00.808Z,5.85
2019-01-13T03:47:00.751Z,5.78
2019-01-13T03:48:00.685Z,5.78
2019-01-13T03:49:00.624Z,5.77
2019-01-13T03:50:00.561Z,5.82
2019-01-13T03:51:00.497Z,5.75
2019-01-13T03:52:00.437Z,5.85
2019-01-13T03:53:00.376Z,5.77
2019-01-13T03:54:00.315Z,5.77
2019-01-13T03:55:00.254Z,5.83
2019-01-13T03:56:00.187Z,5.78
2019-01-13T03:57:00.125Z,5.85
2019-01-13T03:58:00.061Z,5.81
2019-01-13T03:59:00.002Z,5.75
2019-01-13T03:59:59.941Z,5.78
2019-01-13T04:00:59.882Z,5.81
2019-01-13T04:01:59.814Z,5.78
2019-01-13T04:02:59.762Z,5.78
2019-01-13T04:03:59.692Z,5.81
2019-01-13T04:04:59.630Z,5.78
2019-01-13T04:05:59.569Z,5.81
2019-01-13T04:06:59.503Z,5.81
2019-01-13T04:07:59.441Z,5.81
2019-01-13T04:08:59.381Z,5.85
2019-01-13T04:09:59.316Z,5.81
2019-01-13T04:10:59.255Z,5.82
2019-01-13T04:11:59.197Z,5.81
2019-01-13T04:12:59.131Z,5.82
2019-01-13T04:13:59.068Z,5.74
2019-01-13T04:14:59.005Z,5.82
2019-01-13T04:15:58.943Z,5.81
2019-01-13T04:16:58.888Z,5.83
2019-01-13T04:17:58.854Z,5.82
2019-01-13T04:18:58.756Z,5.77
2019-01-13T04:19:58.705Z,5.77
2019-01-13T04:20:58.635Z,5.81
2019-01-13T04:21:58.569Z,5.85
2019-01-13T04:22:58.508Z,5.78
2019-01-13T04:23:58.455Z,5.78
2019-01-13T04:24:58.383Z,5.83
2019-01-13T04:25:58.321Z,5.81
2019-01-13T04:26:58.269Z,5.81
2019-01-13T04:27:58.197Z,5.83
2019-01-13T04:28:58.136Z,5.83
2019-01-13T04:29:58.071Z,5.77
2019-01-13T04:30:58.024Z,5.81
2019-01-13T04:31:57.950Z,5.78
2019-01-13T04:32:57.888Z,5.77
2019-01-13T04:33:57.824Z,5.78
2019-01-13T04:34:57.767Z,5.82
2019-01-13T04:35:57.700Z,5.70
2019-01-13T04:36:57.639Z,5.83
2019-01-13T04:37:57.574Z,5.78
2019-01-13T04:38:57.515Z,5.82
2019-01-13T04:39:57.450Z,5.82
2019-01-13T04:40:57.388Z,5.78
2019-01-13T04:41:57.326Z,5.85
2019-01-13T04:42:57.269Z,5.83
2019-01-13T04:43:57.202Z,5.89
2019-01-13T04:44:57.140Z,5.82
2019-01-13T04:45:57.076Z,5.81
2019-01-13T04:46:57.016Z,5.83
2019-01-13T04:47:56.956Z,5.82
2019-01-13T04:48:56.902Z,5.89
2019-01-13T04:49:56.828Z,5.86
2019-01-13T04:50:56.767Z,5.86
2019-01-13T04:51:56.705Z,5.83
2019-01-13T04:52:56.645Z,5.83
2019-01-13T04:53:56.582Z,5.82
2019-01-13T04:54:56.518Z,5.85
2019-01-13T04:55:56.456Z,5.83
2019-01-13T04:56:56.395Z,5.85
2019-01-13T04:57:56.331Z,5.85
2019-01-13T04:58:56.275Z,5.82
2019-01-13T04:59:56.208Z,5.88
2019-01-13T05:00:56.146Z,5.88
2019-01-13T05:01:56.084Z,5.74
2019-01-13T05:02:56.020Z,5.92
2019-01-13T05:03:55.962Z,5.77
2019-01-13T05:04:55.898Z,5.85
2019-01-13T05:05:55.834Z,5.89
2019-01-13T05:06:55.772Z,5.93
2019-01-13T05:07:55.714Z,5.89
2019-01-13T05:08:55.648Z,5.86
2019-01-13T05:09:55.590Z,5.83
2019-01-13T05:10:55.534Z,5.91
2019-01-13T05:11:55.463Z,5.88
2019-01-13T05:12:55.400Z,5.89
2019-01-13T05:13:55.336Z,5.92
2019-01-13T05:14:55.274Z,5.91
2019-01-13T05:15:55.216Z,5.86
2019-01-13T05:16:55.151Z,5.88
2019-01-13T05:17:55.089Z,5.88
2019-01-13T05:18:55.026Z,5.83
2019-01-13T05:19:54.964Z,5.88
2019-01-13T05:20:54.904Z,5.91
2019-01-13T05:21:54.839Z,5.91
2019-01-13T05:22:54.787Z,5.91
2019-01-13T05:23:54.715Z,5.92
2019-01-13T05:24:54.653Z,5.88
2019-01-13T05:25:54.591Z,5.85
2019-01-13T05:26:54.529Z,5.85
2019-01-13T05:27:54.469Z,5.89
2019-01-13T05:28:54.406Z,5.89
2019-01-13T05:29:54.342Z,5.91
2019-01-13T05:30:54.280Z,5.95
2019-01-13T05:31:54.220Z,5.83
2019-01-13T05:32:54.159Z,5.92
2019-01-13T05:33:54.094Z,5.85
2019-01-13T05:34:54.036Z,5.83
2019-01-13T05:35:53.969Z,5.86
2019-01-13T05:36:53.909Z,5.86
2019-01-13T05:37:53.846Z,5.86
2019-01-13T05:38:53.783Z,5.86
2019-01-13T05:39:53.721Z,5.88
2019-01-13T05:40:53.664Z,5.88
2019-01-13T05:41:53.599Z,5.86
2019-01-13T05:42:53.536Z,5.86
2019-01-13T05:43:53.472Z,5.89
2019-01-13T05:44:53.412Z,5.88
2019-01-13T05:45:53.348Z,5.82
2019-01-13T05:46:53.285Z,5.91
2019-01-13T05:47:53.227Z,5.89
2019-01-13T05:48:53.165Z,5.86
2019-01-13T05:49:53.100Z,5.82
2019-01-13T05:50:53.038Z,6.03
2019-01-13T05:51:52.979Z,5.88
2019-01-13T05:52:52.914Z,5.88
2019-01-13T05:53:52.855Z,5.95
2019-01-13T05:54:52.791Z,5.98
2019-01-13T05:55:52.730Z,5.96
2019-01-13T05:56:52.667Z,5.96
2019-01-13T05:57:52.604Z,5.98
2019-01-13T05:58:52.541Z,5.86
2019-01-13T05:59:52.481Z,5.95
2019-01-13T06:00:52.420Z,5.86
2019-01-13T06:01:52.355Z,5.98
2019-01-13T06:02:52.293Z,5.98
2019-01-13T06:03:52.230Z,5.95
2019-01-13T06:04:52.169Z,6.00
2019-01-13T06:05:52.107Z,5.95
2019-01-13T06:06:52.045Z,5.95
2019-01-13T06:07:51.982Z,6.00
2019-01-13T06:08:51.920Z,5.92
2019-01-13T06:09:51.859Z,5.95
2019-01-13T06:10:51.797Z,5.93
2019-01-13T06:11:51.740Z,5.95
2019-01-13T06:12:51.675Z,5.95
2019-01-13T06:13:51.705Z,6.01
2019-01-13T06:14:51.549Z,5.98
2019-01-13T06:15:51.487Z,5.92
2019-01-13T06:16:51.429Z,5.96
2019-01-13T06:17:51.362Z,5.96
2019-01-13T06:18:51.302Z,5.92
2019-01-13T06:19:51.240Z,6.00
2019-01-13T06:20:51.176Z,5.92
2019-01-13T06:21:51.114Z,5.93
2019-01-13T06:22:51.052Z,5.95
2019-01-13T06:23:50.991Z,5.93
2019-01-13T06:24:50.927Z,5.96
2019-01-13T06:25:50.866Z,5.92
2019-01-13T06:26:50.805Z,6.01
2019-01-13T06:27:50.742Z,5.96
2019-01-13T06:28:50.680Z,6.03
2019-01-13T06:29:50.618Z,6.01
2019-01-13T06:30:50.558Z,6.00
2019-01-13T06:31:56.293Z,6.03
2019-01-13T06:32:50.432Z,6.03
2019-01-13T06:33:50.370Z,6.00
2019-01-13T06:34:50.309Z,6.04
2019-01-13T06:35:50.245Z,5.96
2019-01-13T06:36:50.184Z,6.00
2019-01-13T06:37:50.122Z,5.96
2019-01-13T06:38:50.058Z,6.00
2019-01-13T06:39:49.997Z,6.01
2019-01-13T06:40:49.934Z,5.98
2019-01-13T06:41:49.873Z,6.01
2019-01-13T06:42:49.811Z,5.98
2019-01-13T06:43:49.750Z,5.96
2019-01-13T06:44:49.689Z,6.01
2019-01-13T06:45:49.623Z,6.03
2019-01-13T06:46:49.562Z,6.03
2019-01-13T06:47:49.501Z,5.95
2019-01-13T06:48:49.439Z,6.03
2019-01-13T06:49:49.376Z,6.01
2019-01-13T06:50:49.314Z,6.01
2019-01-13T06:51:49.252Z,5.96
2019-01-13T06:52:49.193Z,5.95
2019-01-13T06:53:49.132Z,6.07
2019-01-13T06:54:49.070Z,6.01
2019-01-13T06:55:49.004Z,6.00
2019-01-13T06:56:48.946Z,5.95
2019-01-13T06:57:48.879Z,6.01
2019-01-13T06:58:48.819Z,5.98
2019-01-13T06:59:48.757Z,6.04
2019-01-13T07:00:48.694Z,6.00
2019-01-13T07:01:48.632Z,6.01
2019-01-13T07:02:48.571Z,6.04
2019-01-13T07:03:48.508Z,6.07
2019-01-13T07:04:48.447Z,6.03
2019-01-13T07:05:48.383Z,6.03
2019-01-13T07:06:48.327Z,6.01
2019-01-13T07:07:48.262Z,6.04
2019-01-13T07:08:48.199Z,5.96
2019-01-13T07:09:48.136Z,5.93
2019-01-13T07:10:48.077Z,6.01
2019-01-13T07:11:48.014Z,5.98
2019-01-13T07:12:47.954Z,5.96
2019-01-13T07:13:47.886Z,6.03
2019-01-13T07:14:47.825Z,6.01
2019-01-13T07:15:47.765Z,6.03
2019-01-13T07:16:47.702Z,6.01
2019-01-13T07:17:47.639Z,5.96
2019-01-13T07:18:47.579Z,6.00
2019-01-13T07:19:47.515Z,6.03
2019-01-13T07:20:47.456Z,5.93
2019-01-13T07:21:47.390Z,5.98
2019-01-13T07:22:47.330Z,5.95
2019-01-13T07:23:47.268Z,6.01
2019-01-13T07:24:47.207Z,5.98
2019-01-13T07:25:47.150Z,5.96
2019-01-13T07:26:47.082Z,5.98
2019-01-13T07:27:47.020Z,5.98
2019-01-13T07:28:46.959Z,5.98
2019-01-13T07:29:46.894Z,6.03
2019-01-13T07:30:46.833Z,6.03
2019-01-13T07:31:46.773Z,6.01
2019-01-13T07:32:46.711Z,5.98
2019-01-13T07:33:46.650Z,6.03
2019-01-13T07:34:46.585Z,5.96
2019-01-13T07:35:46.522Z,5.98
2019-01-13T07:36:46.464Z,5.96
2019-01-13T07:37:46.400Z,5.96
2019-01-13T07:38:46.338Z,6.01
2019-01-13T07:39:46.278Z,5.98
2019-01-13T07:40:46.214Z,5.93
2019-01-13T07:41:46.151Z,6.01
2019-01-13T07:42:46.092Z,6.04
2019-01-13T07:43:46.028Z,5.96
2019-01-13T07:44:45.966Z,6.01
2019-01-13T07:45:45.903Z,6.06
2019-01-13T07:46:45.845Z,6.00
2019-01-13T07:47:45.782Z,6.03
2019-01-13T07:48:45.718Z,6.01
2019-01-13T07:49:45.655Z,5.98
2019-01-13T07:50:45.599Z,6.01
2019-01-13T07:51:45.534Z,6.06
2019-01-13T07:52:45.469Z,6.01
2019-01-13T07:53:45.407Z,6.01
2019-01-13T07:54:46.175Z,6.04
2019-01-13T07:55:45.290Z,6.10
2019-01-13T07:56:45.227Z,6.06
2019-01-13T07:57:45.163Z,6.09
2019-01-13T07:58:45.097Z,5.98
2019-01-13T07:59:45.035Z,6.07
2019-01-13T08:00:44.973Z,6.03
2019-01-13T08:01:44.911Z,6.01
2019-01-13T08:02:44.850Z,6.01
2019-01-13T08:03:44.788Z,6.03
2019-01-13T08:04:44.727Z,6.04
2019-01-13T08:05:44.664Z,6.09
2019-01-13T08:06:44.601Z,6.04
2019-01-13T08:07:44.540Z,5.98
2019-01-13T08:08:44.483Z,6.07
2019-01-13T08:09:44.415Z,6.09
2019-01-13T08:10:44.354Z,6.00
2019-01-13T08:11:44.291Z,6.10
2019-01-13T08:12:44.230Z,6.10
2019-01-13T08:13:44.166Z,6.10
2019-01-13T08:14:44.105Z,6.10
2019-01-13T08:15:44.045Z,6.10
2019-01-13T08:16:43.984Z,6.04
2019-01-13T08:17:43.920Z,6.10
2019-01-13T08:18:43.857Z,6.11
2019-01-13T08:19:43.796Z,6.03
2019-01-13T08:20:43.734Z,6.11
2019-01-13T08:21:43.673Z,6.06
2019-01-13T08:22:43.609Z,6.06
2019-01-13T08:23:43.547Z,6.09
2019-01-13T08:24:43.485Z,6.14
2019-01-13T08:25:43.423Z,6.09
2019-01-13T08:26:43.362Z,6.11
2019-01-13T08:27:43.301Z,6.11
2019-01-13T08:28:43.244Z,6.11
2019-01-13T08:29:43.175Z,6.16
2019-01-13T08:30:43.114Z,6.14
2019-01-13T08:31:43.683Z,6.10
2019-01-13T08:32:42.991Z,6.07
2019-01-13T08:33:42.928Z,6.10
2019-01-13T08:34:42.866Z,6.14
2019-01-13T08:35:42.804Z,6.10
2019-01-13T08:36:42.746Z,6.10
2019-01-13T08:37:42.680Z,6.14
2019-01-13T08:38:42.620Z,6.09
2019-01-13T08:39:42.559Z,6.10
2019-01-13T08:40:42.495Z,6.09
2019-01-13T08:41:42.438Z,6.16
2019-01-13T08:42:42.378Z,6.09
2019-01-13T08:43:42.309Z,6.18
2019-01-13T08:44:42.249Z,6.14
2019-01-13T08:45:42.226Z,6.09
2019-01-13T08:46:42.123Z,6.16
2019-01-13T08:47:42.063Z,6.04
2019-01-13T08:48:41.999Z,6.21
2019-01-13T08:49:41.936Z,6.18
2019-01-13T08:50:41.878Z,6.18
2019-01-13T08:51:41.813Z,6.10
2019-01-13T08:52:41.751Z,6.04
2019-01-13T08:53:41.689Z,6.13
2019-01-13T08:54:41.627Z,6.04
2019-01-13T08:55:41.571Z,6.01
2019-01-13T08:56:41.503Z,6.19
2019-01-13T08:57:41.441Z,6.03
2019-01-13T08:58:41.378Z,6.16
2019-01-13T08:59:41.320Z,6.18
2019-01-13T09:00:41.257Z,6.07
2019-01-13T09:01:41.196Z,6.18
2019-01-13T09:02:41.130Z,6.06
2019-01-13T09:03:41.082Z,6.10
2019-01-13T09:04:41.010Z,6.16
2019-01-13T09:05:40.945Z,6.19
2019-01-13T09:06:40.884Z,6.03
2019-01-13T09:07:40.824Z,6.16
2019-01-13T09:08:40.759Z,6.06
2019-01-13T09:09:40.700Z,6.04
2019-01-13T09:10:40.637Z,6.07
2019-01-13T09:11:40.574Z,6.18
2019-01-13T09:12:40.513Z,6.11
2019-01-13T09:13:40.454Z,6.09
2019-01-13T09:14:40.387Z,6.09
2019-01-13T09:15:40.327Z,6.14
2019-01-13T09:16:40.265Z,6.06
2019-01-13T09:17:40.201Z,6.06
2019-01-13T09:18:40.139Z,6.11
2019-01-13T09:19:40.080Z,6.07
2019-01-13T09:20:40.073Z,6.10
2019-01-13T09:21:39.957Z,6.09
2019-01-13T09:22:39.897Z,6.09
2019-01-13T09:23:39.832Z,6.11
2019-01-13T09:24:39.770Z,6.16
2019-01-13T09:25:39.707Z,6.13
2019-01-13T09:26:39.753Z,6.18
2019-01-13T09:27:39.583Z,6.09
2019-01-13T09:28:39.525Z,6.09
2019-01-13T09:29:42.547Z,6.10
2019-01-13T09:30:39.397Z,6.21
2019-01-13T09:31:39.336Z,6.18
2019-01-13T09:32:39.793Z,6.21
2019-01-13T09:33:39.213Z,6.16
2019-01-13T09:34:39.149Z,6.19
2019-01-13T09:35:39.088Z,6.14
2019-01-13T09:36:39.027Z,6.18
2019-01-13T09:37:38.964Z,6.11
2019-01-13T09:38:38.901Z,6.13
2019-01-13T09:39:38.841Z,6.18
2019-01-13T09:40:38.779Z,6.11
2019-01-13T09:41:38.716Z,6.18
2019-01-13T09:42:38.654Z,6.14
2019-01-13T09:43:38.594Z,6.19
2019-01-13T09:44:38.531Z,6.14
2019-01-13T09:45:38.468Z,6.13
2019-01-13T09:46:38.406Z,6.14
2019-01-13T09:47:38.345Z,6.07
2019-01-13T09:48:38.284Z,6.14
2019-01-13T09:49:38.221Z,6.18
2019-01-13T09:50:38.161Z,6.09
2019-01-13T09:51:38.145Z,6.16
2019-01-13T09:52:38.094Z,6.16
2019-01-13T09:53:37.977Z,6.14
2019-01-13T09:54:37.913Z,6.11
2019-01-13T09:55:37.855Z,6.11
2019-01-13T09:56:37.788Z,6.11
2019-01-13T09:57:37.727Z,6.10
2019-01-13T09:58:37.862Z,6.16
2019-01-13T09:59:37.602Z,6.18
2019-01-13T10:00:37.545Z,6.18
2019-01-13T10:01:37.478Z,6.11
2019-01-13T10:02:37.418Z,6.19
2019-01-13T10:03:37.357Z,6.19
2019-01-13T10:04:37.293Z,6.14
2019-01-13T10:05:37.232Z,6.07
2019-01-13T10:06:37.169Z,6.16
2019-01-13T10:07:37.108Z,6.16
2019-01-13T10:08:37.046Z,6.10
2019-01-13T10:09:36.984Z,6.14
2019-01-13T10:10:36.921Z,6.14
2019-01-13T10:11:36.859Z,6.18
2019-01-13T10:12:36.801Z,6.16
2019-01-13T10:13:36.740Z,6.16
2019-01-13T10:14:36.674Z,6.16
2019-01-13T10:15:36.613Z,6.16
2019-01-13T10:16:36.551Z,6.11
2019-01-13T10:17:36.499Z,6.19
2019-01-13T10:18:36.429Z,6.21
2019-01-13T10:19:36.365Z,6.11
2019-01-13T10:20:36.518Z,6.19
2019-01-13T10:21:36.246Z,6.16
2019-01-13T10:22:36.181Z,6.18
2019-01-13T10:23:36.122Z,6.19
2019-01-13T10:24:36.060Z,6.14
2019-01-13T10:25:36.002Z,6.21
2019-01-13T10:26:35.979Z,6.18
2019-01-13T10:27:35.892Z,6.22
2019-01-13T10:28:35.808Z,6.13
2019-01-13T10:29:35.747Z,6.14
2019-01-13T10:30:35.801Z,6.14
2019-01-13T10:31:35.624Z,6.11
2019-01-13T10:32:35.562Z,6.21
2019-01-13T10:33:35.501Z,6.25
2019-01-13T10:34:35.437Z,6.21
2019-01-13T10:35:35.375Z,6.21
2019-01-13T10:36:35.315Z,6.09
2019-01-13T10:37:35.255Z,6.22
2019-01-13T10:38:35.192Z,6.21
2019-01-13T10:39:35.129Z,6.16
2019-01-13T10:40:35.071Z,6.14
2019-01-13T10:41:35.005Z,6.16
2019-01-13T10:42:34.942Z,6.22
2019-01-13T10:43:34.884Z,6.22
2019-01-13T10:44:34.820Z,6.13
2019-01-13T10:45:34.759Z,6.09
2019-01-13T10:46:34.701Z,6.25
2019-01-13T10:47:34.636Z,6.19
2019-01-13T10:48:34.572Z,6.19
2019-01-13T10:49:34.512Z,6.25
2019-01-13T10:50:34.447Z,6.21
2019-01-13T10:51:34.386Z,6.19
2019-01-13T10:52:34.324Z,6.25
2019-01-13T10:53:34.262Z,6.25
2019-01-13T10:54:34.202Z,6.25
2019-01-13T10:55:34.142Z,6.25
2019-01-13T10:56:34.079Z,6.25
2019-01-13T10:57:34.015Z,6.21
2019-01-13T10:58:33.953Z,6.22
2019-01-13T10:59:33.892Z,6.19
2019-01-13T11:00:33.830Z,6.21
2019-01-13T11:01:33.768Z,6.22
2019-01-13T11:02:33.709Z,6.29
2019-01-13T11:03:33.644Z,6.26
2019-01-13T11:04:33.584Z,6.25
2019-01-13T11:05:33.520Z,6.21
2019-01-13T11:06:33.459Z,6.18
2019-01-13T11:07:33.397Z,6.25
2019-01-13T11:08:33.335Z,6.26
2019-01-13T11:09:33.278Z,6.30
2019-01-13T11:10:33.214Z,6.22
2019-01-13T11:11:33.150Z,6.19
2019-01-13T11:12:33.089Z,6.22
2019-01-13T11:13:33.028Z,6.22
2019-01-13T11:14:32.963Z,6.28
2019-01-13T11:15:32.910Z,6.29
2019-01-13T11:16:32.843Z,6.25
2019-01-13T11:17:32.779Z,6.30
2019-01-13T11:18:32.717Z,6.28
2019-01-13T11:19:32.656Z,6.26
2019-01-13T11:20:32.596Z,6.29
2019-01-13T11:21:32.531Z,6.21
2019-01-13T11:22:32.469Z,6.28
2019-01-13T11:23:32.407Z,6.30
2019-01-13T11:24:32.347Z,6.29
2019-01-13T11:25:32.285Z,6.29
2019-01-13T11:26:32.222Z,6.22
2019-01-13T11:27:32.162Z,6.25
2019-01-13T11:28:32.099Z,6.29
2019-01-13T11:29:32.802Z,6.21
2019-01-13T11:30:31.975Z,6.33
2019-01-13T11:31:31.961Z,6.26
2019-01-13T11:32:31.853Z,6.25
2019-01-13T11:33:31.790Z,6.28
2019-01-13T11:34:31.732Z,6.38
2019-01-13T11:35:31.667Z,6.28
2019-01-13T11:36:31.605Z,6.28
2019-01-13T11:37:31.543Z,6.25
2019-01-13T11:38:31.481Z,6.29
2019-01-13T11:39:31.420Z,6.29
2019-01-13T11:40:31.367Z,6.26
2019-01-13T11:41:31.296Z,6.30
2019-01-13T11:42:31.237Z,6.26
2019-01-13T11:43:31.174Z,6.22
2019-01-13T11:44:31.112Z,6.22
2019-01-13T11:45:31.048Z,6.28
2019-01-13T11:46:30.986Z,6.26
2019-01-13T11:47:30.925Z,6.22
2019-01-13T11:48:30.864Z,6.26
2019-01-13T11:49:30.803Z,6.26
2019-01-13T11:50:30.740Z,6.25
2019-01-13T11:51:30.677Z,6.30
2019-01-13T11:52:30.616Z,6.29
2019-01-13T11:53:30.554Z,6.32
2019-01-13T11:54:30.492Z,6.26
2019-01-13T11:55:30.430Z,6.26
2019-01-13T11:56:30.369Z,6.22
2019-01-13T11:57:30.307Z,6.26
2019-01-13T11:58:30.248Z,6.28
2019-01-13T11:59:30.186Z,6.22
2019-01-13T12:00:30.122Z,6.29
2019-01-13T12:01:30.065Z,6.21
2019-01-13T12:02:32.709Z,6.29
2019-01-13T12:03:30.033Z,6.41
2019-01-13T12:04:29.874Z,6.40
2019-01-13T12:05:29.811Z,6.28
2019-01-13T12:06:29.752Z,6.28
2019-01-13T12:07:29.695Z,6.26
2019-01-13T12:08:29.631Z,6.22
2019-01-13T12:09:29.610Z,6.32
2019-01-13T12:10:29.505Z,6.38
2019-01-13T12:11:29.442Z,6.25
2019-01-13T12:12:29.392Z,6.35
2019-01-13T12:13:29.320Z,6.33
2019-01-13T12:14:29.258Z,6.43
2019-01-13T12:15:29.201Z,6.30
2019-01-13T12:16:29.147Z,6.35
2019-01-13T12:17:29.075Z,6.29
2019-01-13T12:18:29.011Z,6.41
2019-01-13T12:19:28.948Z,6.29
2019-01-13T12:20:28.887Z,6.29
2019-01-13T12:21:28.829Z,6.36
2019-01-13T12:22:28.768Z,6.38
2019-01-13T12:23:28.703Z,6.26
2019-01-13T12:24:28.644Z,6.33
2019-01-13T12:25:28.580Z,6.36
2019-01-13T12:26:28.515Z,6.29
2019-01-13T12:27:28.739Z,6.32
2019-01-13T12:28:28.396Z,6.40
2019-01-13T12:29:28.331Z,6.38
2019-01-13T12:30:28.269Z,6.38
2019-01-13T12:31:28.208Z,6.40
2019-01-13T12:32:28.145Z,6.38
2019-01-13T12:33:28.085Z,6.38
2019-01-13T12:34:28.022Z,6.38
2019-01-13T12:35:27.962Z,6.40
2019-01-13T12:36:27.899Z,6.36
2019-01-13T12:37:27.836Z,6.36
2019-01-13T12:38:27.775Z,6.41
2019-01-13T12:39:27.713Z,6.43
2019-01-13T12:40:27.652Z,6.32
2019-01-13T12:41:27.592Z,6.41
2019-01-13T12:42:27.531Z,6.43
2019-01-13T12:43:27.467Z,6.35
2019-01-13T12:44:27.405Z,6.41
2019-01-13T12:45:27.344Z,6.40
2019-01-13T12:46:27.281Z,6.41
2019-01-13T12:47:27.223Z,6.38
2019-01-13T12:48:27.160Z,6.38
2019-01-13T12:49:27.096Z,6.38
2019-01-13T12:50:27.034Z,6.43
2019-01-13T12:51:26.973Z,6.44
2019-01-13T12:52:26.911Z,6.38
2019-01-13T12:53:26.852Z,6.43
2019-01-13T12:54:26.787Z,6.38
2019-01-13T12:55:26.739Z,6.38
2019-01-13T12:56:26.665Z,6.36
2019-01-13T12:57:26.606Z,6.44
2019-01-13T12:58:26.543Z,6.38
2019-01-13T12:59:26.479Z,6.38
2019-01-13T13:00:26.418Z,6.44
2019-01-13T13:01:26.358Z,6.43
2019-01-13T13:02:26.293Z,6.44
2019-01-13T13:03:31.540Z,6.36
2019-01-13T13:04:26.171Z,6.44
2019-01-13T13:05:26.110Z,6.44
2019-01-13T13:06:26.049Z,6.44
2019-01-13T13:07:25.986Z,6.40
2019-01-13T13:08:25.924Z,6.41
2019-01-13T13:09:25.862Z,6.41
2019-01-13T13:10:25.803Z,6.41
2019-01-13T13:11:25.739Z,6.40
2019-01-13T13:12:25.681Z,6.41
2019-01-13T13:13:25.616Z,6.40
2019-01-13T13:14:25.595Z,6.40
2019-01-13T13:15:25.493Z,6.41
2019-01-13T13:16:25.431Z,6.41
2019-01-13T13:17:25.368Z,6.33